Time;durP1;ratioP1;P1;durP2;ratioP2;P2;SDS_P1;SDS_P2;PMS_P1;PMS_P2;Temp;Humidity;BMP_temperature;BMP_pressure;BME280_temperature;BME280_humidity;BME280_pressure;Samples;Min_cycle;Max_cycle;Signal;HPM_P1;HPM_P2
2022/07/04 00:01:51;;;;;;;;;;;;;;;18.27;51.36;99127.66;4717175;30;19937;-93
2022/07/04 00:04:17;;;;;;;;;;;;;;;18.10;51.67;99128.13;4716925;30;19938;-91
2022/07/04 00:06:47;;;;;;;;;;;;;;;17.99;51.92;99126.63;4721527;30;19930;-90
2022/07/04 00:09:15;;;;;;;;;;;;;;;17.94;51.94;99123.97;4721169;30;19935;-91
2022/07/04 00:11:41;;;;;;;;;;;;;;;17.93;52.08;99122.34;4717753;30;19988;-93
2022/07/04 00:14:08;;;;;;;;;;;;;;;17.96;51.96;99128.03;4718415;30;19938;-92
2022/07/04 00:16:35;;;;;;;;;;;;;;;17.97;52.22;99124.19;4718350;30;19961;-93
2022/07/04 00:19:23;;;;;;;;;;;;;;;17.93;52.48;99119.63;4717814;30;19958;-93
2022/07/04 00:21:50;;;;;;;;;;;;;;;17.87;52.52;99118.03;4719755;30;19931;-93
2022/07/04 00:24:24;;;;;;;;;;;;;;;17.74;52.74;99119.50;4720771;30;19930;-89
2022/07/04 00:26:54;;;;;;;;;;;;;;;17.64;53.22;99114.94;4734253;30;19911;-91
2022/07/04 00:29:21;;;;;;;;;;;;;;;17.53;53.70;99124.34;4724279;30;19915;-89
2022/07/04 00:31:48;;;;;;;;;;;;;;;17.50;53.69;99114.03;4736453;30;19930;-92
2022/07/04 00:34:17;;;;;;;;;;;;;;;17.45;53.68;99124.97;4739558;30;19914;-90
2022/07/04 00:36:47;;;;;;;;;;;;;;;17.40;53.72;99125.03;4739568;30;20006;-90
2022/07/04 00:39:19;;;;;;;;;;;;;;;17.29;54.20;99127.84;4736653;30;19917;-91
2022/07/04 00:41:46;;;;;;;;;;;;;;;17.31;54.19;99125.63;4739731;30;19996;-90
2022/07/04 00:44:17;;;;;;;;;;;;;;;17.31;54.27;99119.34;4732478;30;19938;-90
2022/07/04 00:46:45;;;;;;;;;;;;;;;17.34;54.28;99124.22;4717242;30;19938;-90
2022/07/04 00:49:14;;;;;;;;;;;;;;;17.39;54.11;99117.91;4745966;30;20171;-90
2022/07/04 00:51:41;;;;;;;;;;;;;;;17.38;54.40;99125.28;4702435;30;20403;-89
2022/07/04 00:54:11;;;;;;;;;;;;;;;17.39;54.35;99128.84;4718247;30;19930;-92
2022/07/04 00:56:39;;;;;;;;;;;;;;;17.37;54.50;99128.28;4745695;30;19931;-91
2022/07/04 00:59:06;;;;;;;;;;;;;;;17.38;54.57;99127.22;4731000;30;19938;-93
2022/07/04 01:01:33;;;;;;;;;;;;;;;17.39;54.70;99132.38;4716729;30;19934;-91
2022/07/04 01:04:01;;;;;;;;;;;;;;;17.43;54.54;99129.91;4717160;30;19937;-90
2022/07/04 01:06:37;;;;;;;;;;;;;;;17.50;54.72;99127.66;4731457;30;19937;-89
2022/07/04 01:09:04;;;;;;;;;;;;;;;17.60;54.46;99132.19;4745108;30;20295;-91
2022/07/04 01:11:31;;;;;;;;;;;;;;;17.61;54.15;99131.91;4717513;30;20018;-92
2022/07/04 01:14:02;;;;;;;;;;;;;;;17.58;54.27;99131.69;4715304;30;19931;-90
2022/07/04 01:16:29;;;;;;;;;;;;;;;17.62;54.59;99125.34;4716691;30;20315;-91
2022/07/04 01:18:59;;;;;;;;;;;;;;;17.68;54.43;99128.84;4717343;30;19966;-91
2022/07/04 01:21:25;;;;;;;;;;;;;;;17.71;53.91;99133.72;4717136;30;19931;-92
2022/07/04 01:23:52;;;;;;;;;;;;;;;17.75;53.71;99127.41;4744722;30;19989;-90
2022/07/04 01:26:22;;;;;;;;;;;;;;;17.87;53.25;99137.13;4715515;30;19931;-90
2022/07/04 01:28:49;;;;;;;;;;;;;;;17.90;53.19;99133.81;4716962;30;19991;-91
2022/07/04 01:31:18;;;;;;;;;;;;;;;17.85;53.46;99131.16;4701160;30;19958;-90
2022/07/04 01:33:46;;;;;;;;;;;;;;;17.80;53.75;99137.50;4716437;30;20030;-91
2022/07/04 01:36:12;;;;;;;;;;;;;;;17.61;54.54;99137.34;4716239;30;20000;-88
2022/07/04 01:38:39;;;;;;;;;;;;;;;17.47;54.87;99130.94;4717344;30;20343;-90
2022/07/04 01:41:09;;;;;;;;;;;;;;;17.44;55.14;99143.22;4717011;30;19931;-91
2022/07/04 01:43:36;;;;;;;;;;;;;;;17.52;54.96;99137.19;4717100;30;19930;-91
2022/07/04 01:46:03;;;;;;;;;;;;;;;17.65;54.37;99130.25;4715776;30;20207;-91
2022/07/04 01:48:30;;;;;;;;;;;;;;;17.76;54.31;99139.13;4715865;30;20322;-89
2022/07/04 01:50:59;;;;;;;;;;;;;;;17.83;53.98;99144.28;4716125;30;19957;-91
2022/07/04 01:53:27;;;;;;;;;;;;;;;17.85;54.02;99147.53;4745036;30;20030;-88
2022/07/04 01:55:54;;;;;;;;;;;;;;;17.86;53.74;99149.16;4716989;30;20470;-91
2022/07/04 01:58:25;;;;;;;;;;;;;;;17.84;54.16;99141.25;4716874;30;19970;-91
2022/07/04 02:03:44;;;;;;;;;;;;;;;17.95;53.70;99141.94;4715412;30;19937;-91
2022/07/04 02:06:14;;;;;;;;;;;;;;;18.06;53.42;99146.22;4742534;30;20174;-89
2022/07/04 02:13:00;;;;;;;;;;;;;;;18.23;53.11;99153.94;4725502;30;19937;-89
2022/07/04 02:14:15;;;;;;;;;;;;;;;18.19;53.45;99156.44;4725042;30;20422;-91
2022/07/04 02:16:49;;;;;;;;;;;;;;;18.15;53.90;99149.09;4728778;30;19997;-88
2022/07/04 02:19:17;;;;;;;;;;;;;;;18.05;54.46;99157.41;4761381;30;19930;-88
2022/07/04 02:21:46;;;;;;;;;;;;;;;17.92;54.89;99165.19;4759907;30;19931;-91
2022/07/04 02:24:13;;;;;;;;;;;;;;;17.92;54.96;99158.91;4733583;30;19930;-89
2022/07/04 02:26:40;;;;;;;;;;;;;;;17.93;55.38;99164.09;4731584;30;20441;-88
2022/07/04 02:29:07;;;;;;;;;;;;;;;17.95;55.17;99156.44;4726842;30;19938;-91
2022/07/04 02:31:34;;;;;;;;;;;;;;;17.97;55.08;99167.88;4719151;30;19937;-91
2022/07/04 02:34:01;;;;;;;;;;;;;;;17.93;55.63;99174.22;4720990;30;19970;-89
2022/07/04 02:36:32;;;;;;;;;;;;;;;17.94;55.67;99171.19;4719049;30;19938;-90
2022/07/04 02:38:59;;;;;;;;;;;;;;;18.04;55.29;99166.72;4747985;30;19938;-89
2022/07/04 02:41:26;;;;;;;;;;;;;;;18.11;55.33;99173.47;4704424;30;19930;-91
2022/07/04 02:43:56;;;;;;;;;;;;;;;18.14;55.56;99166.59;4718475;30;19931;-89
2022/07/04 02:46:23;;;;;;;;;;;;;;;18.19;55.55;99163.81;4719449;30;19967;-91
2022/07/04 02:48:50;;;;;;;;;;;;;;;18.30;55.51;99168.03;4703830;30;20045;-90
2022/07/04 02:51:17;;;;;;;;;;;;;;;18.41;55.29;99172.28;4747586;30;19937;-91
2022/07/04 02:53:44;;;;;;;;;;;;;;;18.56;54.85;99162.25;4719023;30;19935;-91
2022/07/04 02:56:11;;;;;;;;;;;;;;;18.73;54.41;99170.78;4719375;30;19957;-89
2022/07/04 02:58:39;;;;;;;;;;;;;;;18.93;53.81;99166.19;4747528;30;20378;-91
2022/07/04 03:01:07;;;;;;;;;;;;;;;19.11;53.45;99170.81;4719013;30;19973;-89
2022/07/04 03:03:35;;;;;;;;;;;;;;;19.29;53.07;99171.91;4746767;30;19938;-91
2022/07/04 03:06:05;;;;;;;;;;;;;;;19.45;53.14;99177.97;4719810;30;19942;-91
2022/07/04 03:08:32;;;;;;;;;;;;;;;19.54;52.74;99164.41;4747090;30;19954;-94
2022/07/04 03:10:59;;;;;;;;;;;;;;;19.70;52.25;99172.09;4747735;30;19937;-90
2022/07/04 03:13:27;;;;;;;;;;;;;;;19.85;51.89;99175.66;4719193;30;19988;-90
2022/07/04 03:15:54;;;;;;;;;;;;;;;19.97;51.64;99173.22;4718117;30;19938;-92
2022/07/04 03:18:22;;;;;;;;;;;;;;;20.09;51.48;99167.28;4718626;30;20391;-91
2022/07/04 03:20:49;;;;;;;;;;;;;;;20.23;51.51;99180.97;4721734;30;19957;-89
2022/07/04 03:23:16;;;;;;;;;;;;;;;20.28;52.07;99181.69;4723646;30;20022;-90
2022/07/04 03:25:43;;;;;;;;;;;;;;;20.38;52.03;99175.19;4753814;30;19938;-90
2022/07/04 03:28:10;;;;;;;;;;;;;;;20.55;51.77;99172.66;4747032;30;19938;-90
2022/07/04 03:30:37;;;;;;;;;;;;;;;20.74;51.45;99174.47;4719408;30;19931;-89
2022/07/04 03:33:30;;;;;;;;;;;;;;;20.84;51.54;99170.69;4721939;30;20248;-93
2022/07/04 03:36:00;;;;;;;;;;;;;;;20.94;51.55;99178.69;4734826;30;19931;-85
2022/07/04 03:38:27;;;;;;;;;;;;;;;21.04;51.40;99181.22;4746430;30;19930;-89
2022/07/04 03:40:54;;;;;;;;;;;;;;;21.11;51.09;99178.03;4745988;30;19947;-90
2022/07/04 03:43:21;;;;;;;;;;;;;;;21.16;50.85;99184.19;4750086;30;19931;-89
2022/07/04 03:45:48;;;;;;;;;;;;;;;21.26;50.75;99176.84;4715615;30;19946;-86
2022/07/04 03:48:14;;;;;;;;;;;;;;;21.34;50.19;99171.44;4416134;30;10000210;-86
2022/07/04 03:50:42;;;;;;;;;;;;;;;21.41;49.39;99177.31;4716037;30;19930;-84
2022/07/04 03:53:09;;;;;;;;;;;;;;;21.43;48.08;99174.28;4715945;30;19942;-89
2022/07/04 03:55:35;;;;;;;;;;;;;;;21.47;47.96;99185.44;4717256;30;19931;-91
2022/07/04 03:58:04;;;;;;;;;;;;;;;21.56;47.99;99180.81;4716978;30;19938;-83
2022/07/04 04:00:31;;;;;;;;;;;;;;;21.67;47.81;99184.91;4715596;30;19931;-88
2022/07/04 04:02:58;;;;;;;;;;;;;;;21.72;47.46;99192.22;4716254;30;20037;-87
2022/07/04 04:05:27;;;;;;;;;;;;;;;21.80;47.33;99192.28;4715481;30;19938;-86
2022/07/04 04:07:55;;;;;;;;;;;;;;;21.93;47.29;99187.03;4714651;30;19937;-91
2022/07/04 04:10:22;;;;;;;;;;;;;;;22.03;46.89;99181.25;4717713;30;19983;-89
2022/07/04 04:12:49;;;;;;;;;;;;;;;22.20;46.80;99189.59;4718076;30;20029;-83
2022/07/04 04:15:16;;;;;;;;;;;;;;;22.30;46.52;99180.25;4717747;30;20374;-84
2022/07/04 04:17:44;;;;;;;;;;;;;;;22.39;46.56;99186.59;4716183;30;19931;-85
2022/07/04 04:20:11;;;;;;;;;;;;;;;22.57;46.47;99179.22;4717445;30;19931;-86
2022/07/04 04:22:38;;;;;;;;;;;;;;;22.73;46.22;99185.88;4717821;30;20383;-87
2022/07/04 04:25:05;;;;;;;;;;;;;;;22.90;46.23;99176.84;4716457;30;19935;-85
2022/07/04 04:27:32;;;;;;;;;;;;;;;23.06;46.05;99182.69;4716935;30;20033;-83
2022/07/04 04:30:00;;;;;;;;;;;;;;;23.22;45.90;99176.72;4721967;30;19936;-88
2022/07/04 04:32:29;;;;;;;;;;;;;;;23.42;45.89;99186.25;4763293;30;19937;-87
2022/07/04 04:34:57;;;;;;;;;;;;;;;23.57;46.02;99172.81;4734068;30;19931;-87
2022/07/04 04:37:24;;;;;;;;;;;;;;;23.71;45.76;99180.06;4728199;30;19981;-88
2022/07/04 04:39:51;;;;;;;;;;;;;;;23.82;45.43;99180.56;4730117;30;19934;-87
2022/07/04 04:42:18;;;;;;;;;;;;;;;23.93;45.44;99187.34;4729599;30;19931;-88
2022/07/04 04:44:45;;;;;;;;;;;;;;;24.03;45.02;99184.22;4732878;30;19981;-88
2022/07/04 04:47:18;;;;;;;;;;;;;;;23.97;44.87;99180.81;4727136;30;19931;-85
2022/07/04 04:49:45;;;;;;;;;;;;;;;23.98;44.66;99181.66;4716716;30;19993;-85
2022/07/04 04:52:12;;;;;;;;;;;;;;;24.08;44.92;99185.97;4716475;30;19997;-88
2022/07/04 04:54:39;;;;;;;;;;;;;;;24.19;44.60;99176.22;4716551;30;19993;-88
2022/07/04 04:57:06;;;;;;;;;;;;;;;24.32;44.32;99191.72;4716803;30;19934;-87
2022/07/04 04:59:34;;;;;;;;;;;;;;;24.42;44.25;99185.84;4717356;30;20395;-87
2022/07/04 05:02:02;;;;;;;;;;;;;;;24.53;44.37;99191.00;4716496;30;19938;-87
2022/07/04 05:04:29;;;;;;;;;;;;;;;24.76;44.47;99191.50;4726765;30;19938;-88
2022/07/04 05:06:58;;;;;;;;;;;;;;;24.90;44.41;99191.28;4706004;30;19931;-89
2022/07/04 05:09:28;;;;;;;;;;;;;;;24.96;44.21;99192.69;4377650;30;10000528;-88
2022/07/04 05:11:55;;;;;;;;;;;;;;;25.04;43.99;99192.63;4696597;30;19934;-87
2022/07/04 05:14:22;;;;;;;;;;;;;;;25.16;44.26;99191.91;4705490;30;19931;-88
2022/07/04 05:16:51;;;;;;;;;;;;;;;25.33;43.60;99190.97;4710327;30;19931;-89
2022/07/04 05:19:18;;;;;;;;;;;;;;;25.46;43.07;99189.06;4724828;30;19931;-88
2022/07/04 05:21:45;;;;;;;;;;;;;;;25.43;43.49;99189.75;4695673;30;19935;-87
2022/07/04 05:24:12;;;;;;;;;;;;;;;25.46;43.29;99195.38;4722923;30;19947;-88
2022/07/04 05:26:39;;;;;;;;;;;;;;;25.54;43.30;99185.41;4701642;30;19931;-86
2022/07/04 05:29:06;;;;;;;;;;;;;;;25.63;43.24;99193.63;4710947;30;19941;-87
2022/07/04 05:31:33;;;;;;;;;;;;;;;25.74;42.99;99179.00;4714136;30;19942;-90
2022/07/04 05:34:00;;;;;;;;;;;;;;;25.86;43.08;99180.25;4720151;30;20025;-92
2022/07/04 05:36:32;;;;;;;;;;;;;;;25.88;42.52;99181.50;4741803;30;20010;-94
2022/07/04 05:39:04;;;;;;;;;;;;;;;25.99;42.39;99179.09;4738108;30;19931;-94
2022/07/04 05:41:35;;;;;;;;;;;;;;;26.02;42.51;99183.94;4722300;30;20314;-94
2022/07/04 05:44:04;;;;;;;;;;;;;;;26.03;42.16;99188.34;4733629;30;19976;-91
2022/07/04 05:46:31;;;;;;;;;;;;;;;25.98;41.75;99183.03;4733189;30;19931;-91
2022/07/04 05:48:58;;;;;;;;;;;;;;;26.06;42.33;99184.09;4729303;30;19941;-88
2022/07/04 05:51:25;;;;;;;;;;;;;;;26.11;42.30;99181.09;4728038;30;20469;-84
2022/07/04 05:53:52;;;;;;;;;;;;;;;26.10;42.00;99188.56;4720637;30;19956;-86
2022/07/04 05:56:19;;;;;;;;;;;;;;;26.05;41.96;99177.72;4718313;30;20045;-88
2022/07/04 05:58:47;;;;;;;;;;;;;;;26.19;41.89;99188.47;4720941;30;19978;-88
2022/07/04 06:01:15;;;;;;;;;;;;;;;26.28;42.03;99186.41;4729591;30;20260;-89
2022/07/04 06:03:47;;;;;;;;;;;;;;;26.29;41.45;99181.69;4746785;30;20037;-89
2022/07/04 06:06:16;;;;;;;;;;;;;;;26.43;41.26;99186.88;4713752;30;19985;-86
2022/07/04 06:08:46;;;;;;;;;;;;;;;26.47;41.03;99183.06;4718865;30;19930;-92
2022/07/04 06:11:17;;;;;;;;;;;;;;;26.61;40.69;99184.69;4715380;30;20025;-90
2022/07/04 06:13:44;;;;;;;;;;;;;;;26.74;40.57;99175.25;4724681;30;19945;-91
2022/07/04 06:16:11;;;;;;;;;;;;;;;26.87;40.58;99185.13;4739511;30;19962;-91
2022/07/04 06:18:38;;;;;;;;;;;;;;;26.87;40.51;99187.09;4737952;30;19918;-92
2022/07/04 06:21:15;;;;;;;;;;;;;;;26.93;40.12;99180.16;4750452;30;19988;-91
2022/07/04 06:23:45;;;;;;;;;;;;;;;26.99;39.55;99178.75;4743590;30;19935;-90
2022/07/04 06:26:12;;;;;;;;;;;;;;;27.09;39.60;99181.03;4737476;30;20139;-92
2022/07/04 06:28:39;;;;;;;;;;;;;;;27.20;39.56;99181.41;4718139;30;20055;-91
2022/07/04 06:31:13;;;;;;;;;;;;;;;27.28;39.53;99179.63;4708725;30;19938;-92
2022/07/04 06:36:28;;;;;;;;;;;;;;;27.31;38.70;99185.25;4699680;30;19995;-93
2022/07/04 06:38:56;;;;;;;;;;;;;;;27.37;38.50;99183.88;4707626;30;20314;-91
2022/07/04 06:41:24;;;;;;;;;;;;;;;27.54;38.15;99184.72;4730724;30;19931;-90
2022/07/04 06:43:51;;;;;;;;;;;;;;;27.70;38.14;99177.25;4733201;30;19931;-92
2022/07/04 06:46:18;;;;;;;;;;;;;;;27.79;37.62;99190.94;4727308;30;19962;-91
2022/07/04 06:48:45;;;;;;;;;;;;;;;27.81;37.79;99189.47;4719332;30;20190;-92
2022/07/04 06:51:13;;;;;;;;;;;;;;;27.83;37.54;99183.56;4715721;30;20457;-89
2022/07/04 06:53:41;;;;;;;;;;;;;;;27.90;37.61;99178.19;4716554;30;19931;-85
2022/07/04 06:56:08;;;;;;;;;;;;;;;27.78;37.02;99184.59;4695177;30;19930;-92
2022/07/04 06:58:38;;;;;;;;;;;;;;;27.82;37.57;99187.47;4727019;30;19934;-88
2022/07/04 07:01:05;;;;;;;;;;;;;;;27.91;37.17;99179.81;4740222;30;19981;-87
2022/07/04 07:03:32;;;;;;;;;;;;;;;27.93;36.95;99179.44;4729081;30;20528;-87
2022/07/04 07:05:59;;;;;;;;;;;;;;;27.95;36.76;99183.47;4715542;30;19930;-91
2022/07/04 07:08:28;;;;;;;;;;;;;;;27.91;37.43;99171.50;4711129;30;19934;-91
2022/07/04 07:10:56;;;;;;;;;;;;;;;28.00;36.80;99169.34;4715093;30;20032;-88
2022/07/04 07:13:23;;;;;;;;;;;;;;;28.01;37.16;99176.50;4743323;30;19938;-88
2022/07/04 07:15:50;;;;;;;;;;;;;;;28.15;37.32;99175.25;4714021;30;19931;-86
2022/07/04 07:18:17;;;;;;;;;;;;;;;27.98;36.83;99171.69;4710136;30;19931;-86
2022/07/04 07:20:44;;;;;;;;;;;;;;;28.07;36.50;99175.06;4702086;30;19931;-93
2022/07/04 07:23:14;;;;;;;;;;;;;;;28.12;36.16;99176.78;4697216;30;19969;-85
2022/07/04 07:25:44;;;;;;;;;;;;;;;28.15;36.45;99175.25;4698704;30;19931;-89
2022/07/04 07:28:19;;;;;;;;;;;;;;;28.20;36.39;99161.91;4701871;30;19931;-88
2022/07/04 07:30:46;;;;;;;;;;;;;;;28.25;35.87;99166.38;4708707;30;19969;-94
2022/07/04 07:33:18;;;;;;;;;;;;;;;28.29;35.43;99165.31;4719218;30;19931;-94
2022/07/04 07:35:46;;;;;;;;;;;;;;;28.48;35.06;99169.34;4740560;30;19935;-92
2022/07/04 07:38:18;;;;;;;;;;;;;;;28.58;34.72;99171.56;4721251;30;19963;-94
2022/07/04 07:40:46;;;;;;;;;;;;;;;28.64;34.79;99172.13;4696086;30;19958;-90
2022/07/04 07:43:13;;;;;;;;;;;;;;;28.60;34.12;99163.69;4716001;30;19930;-92
2022/07/04 07:45:41;;;;;;;;;;;;;;;28.45;34.49;99162.53;4717521;30;19941;-86
2022/07/04 07:48:08;;;;;;;;;;;;;;;28.50;34.46;99172.56;4726109;30;19938;-88
2022/07/04 07:50:37;;;;;;;;;;;;;;;28.65;34.58;99179.28;4733420;30;19977;-82
2022/07/04 07:53:15;;;;;;;;;;;;;;;;;;;;;
2022/07/04 07:55:43;;;;;;;;;;;;;;;28.82;34.08;99169.75;4746242;30;19930;-91
2022/07/04 07:58:12;;;;;;;;;;;;;;;28.63;33.78;99170.50;4761570;30;20422;-89
2022/07/04 08:00:39;;;;;;;;;;;;;;;28.71;33.72;99172.25;4731260;30;19977;-85
2022/07/04 08:06:10;;;;;;;;;;;;;;;28.92;32.87;99172.75;4715662;30;19984;-87
2022/07/04 08:08:41;;;;;;;;;;;;;;;29.00;32.70;99168.16;4722190;30;20123;-87
2022/07/04 08:11:11;;;;;;;;;;;;;;;29.09;32.24;99176.28;4742961;30;20315;-88
2022/07/04 08:13:38;;;;;;;;;;;;;;;29.25;32.41;99163.16;4715450;30;19938;-88
2022/07/04 08:16:06;;;;;;;;;;;;;;;29.37;32.28;99173.28;4714139;30;19937;-90
2022/07/04 08:18:33;;;;;;;;;;;;;;;29.58;32.03;99161.81;4707239;30;20829;-91
2022/07/04 08:21:00;;;;;;;;;;;;;;;29.81;31.66;99168.22;4742970;30;20313;-91
2022/07/04 08:23:32;;;;;;;;;;;;;;;29.89;31.50;99168.38;4717529;30;19966;-92
2022/07/04 08:26:03;;;;;;;;;;;;;;;29.85;31.50;99164.69;4521471;30;10000558;-88
2022/07/04 08:28:34;;;;;;;;;;;;;;;29.96;31.72;99166.50;4699724;30;19931;-92
2022/07/04 08:31:01;;;;;;;;;;;;;;;30.22;30.81;99170.53;4727366;30;20441;-91
2022/07/04 08:33:32;;;;;;;;;;;;;;;30.55;30.97;99163.50;4688589;30;19931;-93
2022/07/04 08:36:02;;;;;;;;;;;;;;;30.53;30.17;99171.44;4716995;30;19931;-91
2022/07/04 08:38:29;;;;;;;;;;;;;;;30.46;30.04;99169.31;4718737;30;19931;-94
2022/07/04 08:40:57;;;;;;;;;;;;;;;30.75;29.83;99167.00;4745191;30;20470;-91
2022/07/04 08:43:25;;;;;;;;;;;;;;;31.27;29.13;99159.72;4718187;30;20421;-89
2022/07/04 08:45:55;;;;;;;;;;;;;;;31.73;28.65;99154.72;4701302;30;19944;-89
2022/07/04 08:48:42;;;;;;;;;;;;;;;31.95;28.57;99164.13;4717550;30;20417;-90
2022/07/04 08:51:17;;;;;;;;;;;;;;;32.15;28.39;99163.88;4727840;30;19938;-93
2022/07/04 08:53:56;;;;;;;;;;;;;;;32.28;27.84;99161.59;4699180;30;19931;-92
2022/07/04 08:59:09;;;;;;;;;;;;;;;32.31;27.36;99161.63;4723965;30;19942;-92
2022/07/04 09:01:39;;;;;;;;;;;;;;;32.46;27.42;99156.97;4702480;30;19930;-90
2022/07/04 09:04:09;;;;;;;;;;;;;;;32.54;26.78;99158.63;4715462;30;19937;-87
2022/07/04 09:06:37;;;;;;;;;;;;;;;32.85;26.51;99158.41;4717306;30;19938;-90
2022/07/04 09:09:05;;;;;;;;;;;;;;;33.23;26.00;99165.41;4687603;30;19973;-90
2022/07/04 09:11:39;;;;;;;;;;;;;;;33.40;26.25;99156.28;4715989;30;20030;-88
2022/07/04 09:14:11;;;;;;;;;;;;;;;33.58;26.05;99155.56;4701530;30;19942;-91
2022/07/04 09:16:38;;;;;;;;;;;;;;;33.88;25.90;99146.84;4716753;30;19930;-89
2022/07/04 09:19:08;;;;;;;;;;;;;;;34.01;25.77;99148.03;4743255;30;20427;-89
2022/07/04 09:21:45;;;;;;;;;;;;;;;34.25;25.33;99146.44;4712928;30;19958;-85
2022/07/04 09:24:12;;;;;;;;;;;;;;;34.07;25.34;99146.47;4714133;30;19934;-91
2022/07/04 09:26:46;;;;;;;;;;;;;;;34.16;25.41;99145.25;4712929;30;19930;-90
2022/07/04 09:29:13;;;;;;;;;;;;;;;34.24;25.15;99144.06;4708894;30;20419;-88
2022/07/04 09:31:41;;;;;;;;;;;;;;;34.34;25.04;99143.25;4700551;30;20463;-85
2022/07/04 09:34:08;;;;;;;;;;;;;;;34.63;24.91;99144.03;4715681;30;20036;-90
2022/07/04 09:36:41;;;;;;;;;;;;;;;34.88;24.63;99138.34;4715951;30;20026;-91
2022/07/04 09:39:14;;;;;;;;;;;;;;;34.23;24.78;99142.44;4718985;30;19937;-89
2022/07/04 09:41:54;;;;;;;;;;;;;;;33.63;25.23;99128.00;4746198;30;19995;-90
2022/07/04 09:44:22;;;;;;;;;;;;;;;32.68;26.36;99138.34;4745180;30;20471;-91
2022/07/04 09:46:49;;;;;;;;;;;;;;;32.18;26.48;99146.34;4718239;30;19989;-91
2022/07/04 09:49:18;;;;;;;;;;;;;;;32.96;26.07;99136.91;4718138;30;19992;-90
2022/07/04 09:51:46;;;;;;;;;;;;;;;32.75;26.29;99141.19;4712598;30;20021;-88
2022/07/04 09:54:13;;;;;;;;;;;;;;;33.86;25.38;99135.22;4721382;30;19965;-92
2022/07/04 09:56:41;;;;;;;;;;;;;;;34.22;24.77;99133.25;4722566;30;19937;-91
2022/07/04 09:59:11;;;;;;;;;;;;;;;34.95;24.01;99129.94;4732010;30;19981;-90
2022/07/04 10:01:47;;;;;;;;;;;;;;;35.85;23.37;99128.69;4719872;30;19931;-93
2022/07/04 10:04:14;;;;;;;;;;;;;;;36.54;22.51;99122.09;4718950;30;20057;-88
2022/07/04 10:06:42;;;;;;;;;;;;;;;35.51;23.05;99124.47;4730432;30;20391;-88
2022/07/04 10:09:11;;;;;;;;;;;;;;;35.05;23.63;99122.69;4747307;30;20323;-83
2022/07/04 10:11:38;;;;;;;;;;;;;;;34.46;24.57;99117.63;4713350;30;19969;-83
2022/07/04 10:14:09;;;;;;;;;;;;;;;33.30;26.24;99115.13;4745368;30;19930;-87
2022/07/04 10:16:37;;;;;;;;;;;;;;;32.57;27.23;99118.75;4719222;30;19934;-85
2022/07/04 10:19:07;;;;;;;;;;;;;;;33.23;26.77;99112.28;4718405;30;20025;-88
2022/07/04 10:21:34;;;;;;;;;;;;;;;34.68;25.08;99106.38;4727105;30;20341;-83
2022/07/04 10:24:03;;;;;;;;;;;;;;;35.07;24.65;99111.03;4718578;30;20445;-86
2022/07/04 10:26:30;;;;;;;;;;;;;;;35.50;23.75;99108.84;4715406;30;20452;-87
2022/07/04 10:29:00;;;;;;;;;;;;;;;36.29;23.14;99113.09;4717535;30;19931;-85
2022/07/04 10:31:29;;;;;;;;;;;;;;;36.44;23.01;99106.13;4718457;30;19935;-87
2022/07/04 10:33:57;;;;;;;;;;;;;;;36.96;22.21;99108.75;4717088;30;19935;-88
2022/07/04 10:36:29;;;;;;;;;;;;;;;37.66;21.64;99107.47;4717651;30;19988;-86
2022/07/04 10:39:01;;;;;;;;;;;;;;;37.48;21.49;99102.09;4722074;30;19995;-94
2022/07/04 10:41:29;;;;;;;;;;;;;;;37.04;21.79;99104.66;4720363;30;19930;-87
2022/07/04 10:44:00;;;;;;;;;;;;;;;37.59;21.53;99099.13;4721699;30;20370;-87
2022/07/04 10:46:27;;;;;;;;;;;;;;;36.08;22.79;99097.22;4721084;30;20318;-88
2022/07/04 10:49:02;;;;;;;;;;;;;;;36.02;22.65;99094.84;4722659;30;19971;-93
2022/07/04 10:51:35;;;;;;;;;;;;;;;36.62;21.53;99095.50;4728712;30;19930;-89
2022/07/04 10:54:07;;;;;;;;;;;;;;;36.04;21.90;99088.81;4710293;30;19941;-89
2022/07/04 10:56:39;;;;;;;;;;;;;;;36.16;22.36;99090.31;4739057;30;19930;-89
2022/07/04 10:59:16;;;;;;;;;;;;;;;37.15;21.62;99084.03;4767475;29;19926;-89
2022/07/04 11:01:45;;;;;;;;;;;;;;;38.13;20.67;99080.16;4739915;30;19910;-94
2022/07/04 11:04:47;;;;;;;;;;;;;;;38.69;20.39;99087.19;4742894;30;19966;-89
2022/07/04 11:07:21;;;;;;;;;;;;;;;39.23;19.71;99084.84;4702660;30;20374;-92
2022/07/04 11:10:06;;;;;;;;;;;;;;;39.98;19.31;99079.47;4717901;30;19930;-91
2022/07/04 11:12:45;;;;;;;;;;;;;;;39.84;19.41;99072.16;4745980;30;19934;-92
2022/07/04 11:15:16;;;;;;;;;;;;;;;37.15;21.28;99075.59;4703072;30;19931;-91
2022/07/04 11:17:43;;;;;;;;;;;;;;;36.30;21.94;99072.56;4717862;30;19973;-91
2022/07/04 11:20:10;;;;;;;;;;;;;;;36.74;21.62;99080.13;4717486;30;20315;-89
2022/07/04 11:22:37;;;;;;;;;;;;;;;37.92;20.41;99077.66;4703156;30;19952;-90
2022/07/04 11:25:04;;;;;;;;;;;;;;;38.85;19.49;99064.69;4717395;30;20565;-90
2022/07/04 11:27:31;;;;;;;;;;;;;;;38.61;19.11;99068.81;4718698;30;20021;-92
2022/07/04 11:29:58;;;;;;;;;;;;;;;38.99;19.24;99063.63;4719123;30;19938;-91
2022/07/04 11:32:40;;;;;;;;;;;;;;;39.04;19.42;99056.66;4721073;30;19931;-90
2022/07/04 11:35:10;;;;;;;;;;;;;;;37.35;20.91;99068.09;4723053;30;19957;-90
2022/07/04 11:37:37;;;;;;;;;;;;;;;35.69;22.44;99056.22;4725310;30;19930;-89
2022/07/04 11:46:14;;;;;;;;;;;;;;;38.11;20.24;99060.06;4735599;30;19931;-92
2022/07/04 11:48:41;;;;;;;;;;;;;;;39.52;19.19;99055.19;4747674;30;20400;-91
2022/07/04 11:51:17;;;;;;;;;;;;;;;39.47;18.05;99056.50;4718112;30;19934;-90
2022/07/04 11:53:44;;;;;;;;;;;;;;;38.54;18.87;99044.38;4718855;30;19931;-91
2022/07/04 11:56:11;;;;;;;;;;;;;;;38.08;19.29;99046.03;4717661;30;19931;-91
2022/07/04 11:58:42;;;;;;;;;;;;;;;38.81;18.71;99047.03;4717423;30;19938;-91
2022/07/04 12:01:12;;;;;;;;;;;;;;;39.75;18.34;99045.75;4702753;30;19937;-91
2022/07/04 12:03:42;;;;;;;;;;;;;;;39.79;18.05;99043.66;4718026;30;20368;-91
2022/07/04 12:06:10;;;;;;;;;;;;;;;40.08;17.87;99040.88;4717070;30;19931;-90
2022/07/04 12:08:41;;;;;;;;;;;;;;;39.74;18.20;99044.16;4719530;30;19965;-89
2022/07/04 12:11:08;;;;;;;;;;;;;;;38.95;18.67;99046.00;4740929;30;19931;-90
2022/07/04 12:13:35;;;;;;;;;;;;;;;39.37;18.71;99047.06;4708234;30;19930;-92
2022/07/04 12:16:03;;;;;;;;;;;;;;;39.50;18.41;99049.19;4693502;30;19931;-87
2022/07/04 12:18:33;;;;;;;;;;;;;;;39.97;18.40;99046.03;4706760;30;19935;-90
2022/07/04 12:21:15;;;;;;;;;;;;;;;40.83;17.08;99038.03;4752652;30;19931;-90
2022/07/04 12:23:49;;;;;;;;;;;;;;;41.03;17.09;99032.97;4724045;30;20026;-86
2022/07/04 12:26:32;;;;;;;;;;;;;;;39.81;18.24;99030.69;4745935;30;19997;-88
2022/07/04 12:28:59;;;;;;;;;;;;;;;38.97;18.57;99015.28;4719777;30;19989;-90
2022/07/04 12:31:39;;;;;;;;;;;;;;;39.94;18.04;99025.09;4712887;30;20426;-87
2022/07/04 12:34:18;;;;;;;;;;;;;;;40.72;17.66;99016.53;4750206;30;19934;-85
2022/07/04 12:36:52;;;;;;;;;;;;;;;39.34;18.42;99021.75;4714967;30;19930;-86
2022/07/04 12:39:29;;;;;;;;;;;;;;;39.55;18.75;99024.06;4737187;30;19937;-90
2022/07/04 12:42:12;;;;;;;;;;;;;;;40.86;17.86;99020.94;4722102;30;19930;-92
2022/07/04 12:44:39;;;;;;;;;;;;;;;42.11;16.54;99021.81;4727077;30;19931;-85
2022/07/04 12:47:06;;;;;;;;;;;;;;;42.62;16.12;99021.56;4699614;30;19978;-89
2022/07/04 12:49:50;;;;;;;;;;;;;;;42.95;15.91;99015.47;4700210;30;19931;-87
2022/07/04 12:52:18;;;;;;;;;;;;;;;42.72;16.27;99010.25;4700429;30;19931;-88
2022/07/04 12:54:46;;;;;;;;;;;;;;;42.51;15.64;99004.16;4701734;30;19931;-88
2022/07/04 12:57:18;;;;;;;;;;;;;;;42.52;15.71;99008.59;4700408;30;19935;-86
2022/07/04 12:59:45;;;;;;;;;;;;;;;42.31;15.75;98993.09;4707880;30;19957;-86
2022/07/04 13:02:13;;;;;;;;;;;;;;;42.49;15.81;99001.00;4721062;30;19931;-88
2022/07/04 13:04:41;;;;;;;;;;;;;;;42.29;16.18;98994.81;4729194;30;19930;-85
2022/07/04 13:07:13;;;;;;;;;;;;;;;40.86;17.35;99008.84;4719820;30;19942;-90
2022/07/04 13:09:41;;;;;;;;;;;;;;;38.55;19.08;99000.88;4719541;30;19953;-90
2022/07/04 13:14:55;;;;;;;;;;;;;;;37.55;19.63;98991.41;4736887;30;20034;-92
2022/07/04 13:17:22;;;;;;;;;;;;;;;39.35;17.88;98989.44;4722297;30;19937;-92
2022/07/04 13:19:52;;;;;;;;;;;;;;;38.70;18.52;98990.88;4749374;30;19956;-89
2022/07/04 13:22:19;;;;;;;;;;;;;;;37.50;20.17;98993.47;4735731;30;19930;-90